CheckWX is a tool to help pilots better visualize weather data.  It is not intended as a substitute for an official pre-flight weather briefing.

08:32:47 UTC

SBSM TAF
Santa Maria Airport
Santa Maria, Brazil
TAF SBSM 190200Z 1906/1918 29007KT 9999 SCT030 TN20/1908Z TX27/1918Z PROB30 1906/1909 5000 BR BKN005 RMK PER

Mar-19@
06:00 UTC

Mar-19 @ 06:00 UTC

Mar-19@
18:00 UTC

Mar-19 @ 18:00 UTC

TAF SBSM 190200Z 1906/1918 29007KT 9999 SCT030 TN20/1908Z TX27/1918Z
Wind
  • 290° at 7 KTS
Cloud Levels
  • Scattered at 3,000' AGL

Mar-19@
06:00 UTC

Mar-19 @ 06:00 UTC

Mar-19@
09:00 UTC

Mar-19 @ 09:00 UTC

PROB30 1906/1909 5000 BR BKN005 RMK PER

Probable - 30% Likelihood

Probable - 30% Likelihood during this time.

Conditions
Mist
Cloud Levels
  • Broken at 500' AGL